Time;durP1;ratioP1;P1;durP2;ratioP2;P2;SDS_P1;SDS_P2;PMS_P1;PMS_P2;Temp;Humidity;BMP_temperature;BMP_pressure;BME280_temperature;BME280_humidity;BME280_pressure;Samples;Min_cycle;Max_cycle;Signal;HPM_P1;HPM_P2
2021/07/03 00:01:27;;;;;;;16.92;11.02;;;18.50;68.70;;;;;;5036304;28;20026;-73
2021/07/03 00:03:53;;;;;;;17.35;12.40;;;18.50;69.10;;;;;;5035170;28;20496;-72
2021/07/03 00:06:18;;;;;;;19.95;11.13;;;18.50;69.10;;;;;;5037139;28;20021;-72
2021/07/03 00:08:44;;;;;;;17.48;12.57;;;18.50;68.90;;;;;;5034382;28;20087;-72
2021/07/03 00:11:10;;;;;;;17.90;11.57;;;18.50;68.60;;;;;;5036000;28;20389;-72
2021/07/03 00:13:37;;;;;;;15.85;11.07;;;18.50;68.50;;;;;;5036675;28;20445;-71
2021/07/03 00:16:03;;;;;;;18.73;12.90;;;18.50;68.80;;;;;;5036689;28;20025;-71
2021/07/03 00:18:29;;;;;;;20.27;12.60;;;18.50;69.60;;;;;;5035227;28;20081;-71
2021/07/03 00:20:55;;;;;;;18.10;12.35;;;18.50;69.40;;;;;;5032287;28;20037;-71
2021/07/03 00:23:21;;;;;;;19.13;12.25;;;18.50;69.40;;;;;;5039941;28;20067;-71
2021/07/03 00:25:47;;;;;;;17.73;11.77;;;18.50;69.70;;;;;;5040177;28;20056;-71
2021/07/03 00:28:12;;;;;;;16.77;11.15;;;18.50;69.70;;;;;;5040094;28;20029;-71
2021/07/03 00:30:38;;;;;;;17.13;11.50;;;18.40;69.60;;;;;;5035090;28;20080;-72
2021/07/03 00:33:04;;;;;;;15.75;11.50;;;18.40;69.10;;;;;;5030728;28;20110;-71
2021/07/03 00:35:30;;;;;;;17.45;11.75;;;18.40;68.90;;;;;;5037950;28;20026;-72
2021/07/03 00:37:56;;;;;;;18.77;12.38;;;18.40;69.30;;;;;;5039840;28;20022;-71
2021/07/03 00:40:22;;;;;;;18.10;12.20;;;18.40;68.80;;;;;;5039158;28;20036;-72
2021/07/03 00:42:48;;;;;;;16.13;11.10;;;18.40;69.10;;;;;;5038372;28;20036;-71
2021/07/03 00:45:13;;;;;;;14.82;10.88;;;18.40;68.60;;;;;;5036328;28;20026;-72
2021/07/03 00:47:39;;;;;;;14.40;10.73;;;18.30;68.40;;;;;;5038582;28;20033;-72
2021/07/03 00:50:10;;;;;;;16.40;10.50;;;18.30;68.40;;;;;;5034278;28;20084;-71
2021/07/03 00:52:37;;;;;;;21.83;12.68;;;18.30;69.00;;;;;;5039777;28;20021;-71
2021/07/03 00:55:04;;;;;;;20.55;12.38;;;18.30;68.80;;;;;;5039157;28;20057;-71
2021/07/03 00:57:31;;;;;;;16.70;12.05;;;18.30;69.90;;;;;;5039407;28;20021;-72
2021/07/03 00:59:58;;;;;;;20.02;12.02;;;18.20;69.50;;;;;;5039765;28;20061;-72
2021/07/03 01:02:24;;;;;;;20.20;12.25;;;18.20;69.80;;;;;;5039404;28;20361;-72
2021/07/03 01:04:50;;;;;;;16.02;10.70;;;18.20;70.00;;;;;;5038771;28;20041;-72
2021/07/03 01:07:16;;;;;;;19.38;12.00;;;18.20;69.60;;;;;;5039628;28;20396;-71
2021/07/03 01:09:42;;;;;;;17.67;11.95;;;18.20;69.60;;;;;;5038671;28;20065;-72
2021/07/03 01:12:09;;;;;;;20.75;11.65;;;18.20;69.70;;;;;;5037275;28;20060;-72
2021/07/03 01:14:46;;;;;;;17.60;11.40;;;18.10;72.10;;;;;;5037950;28;20509;-72
2021/07/03 01:17:13;;;;;;;16.25;10.60;;;18.10;70.60;;;;;;5037936;28;20021;-72
2021/07/03 01:19:40;;;;;;;15.10;11.20;;;18.10;71.00;;;;;;5036406;28;20498;-72
2021/07/03 01:22:08;;;;;;;16.30;10.48;;;18.10;71.20;;;;;;5038905;28;20021;-72
2021/07/03 01:24:34;;;;;;;17.10;10.60;;;18.10;71.90;;;;;;5038639;28;20143;-72
2021/07/03 01:27:00;;;;;;;17.98;12.15;;;18.10;72.10;;;;;;5038519;28;20056;-72
2021/07/03 01:29:26;;;;;;;17.52;12.07;;;18.10;72.50;;;;;;5038627;28;20400;-72
2021/07/03 01:31:55;;;;;;;18.58;11.75;;;18.00;72.90;;;;;;5038724;28;20029;-72
2021/07/03 01:34:23;;;;;;;17.15;11.82;;;18.00;72.70;;;;;;5034212;28;20044;-72
2021/07/03 01:36:49;;;;;;;15.85;10.73;;;18.00;72.50;;;;;;5038040;28;20067;-72
2021/07/03 01:39:15;;;;;;;17.35;11.90;;;18.00;72.40;;;;;;5038032;28;20492;-72
2021/07/03 01:41:42;;;;;;;16.52;10.82;;;18.00;74.60;;;;;;5038353;28;20044;-72
2021/07/03 01:44:08;;;;;;;19.60;11.52;;;18.00;74.10;;;;;;5034265;28;20045;-72
2021/07/03 01:46:34;;;;;;;20.13;11.32;;;18.00;74.50;;;;;;5032477;28;20048;-71
2021/07/03 01:49:18;;;;;;;17.23;11.10;;;18.00;74.30;;;;;;5035328;28;20040;-72
2021/07/03 01:51:44;;;;;;;17.48;10.63;;;18.00;73.20;;;;;;5038420;28;20033;-72
2021/07/03 01:54:10;;;;;;;17.35;11.88;;;18.00;73.80;;;;;;5038781;28;20071;-72
2021/07/03 01:56:57;;;;;;;16.15;10.68;;;18.00;73.90;;;;;;5038017;28;20021;-72
2021/07/03 01:59:28;;;;;;;18.67;11.63;;;18.10;74.20;;;;;;5036843;28;20048;-72
2021/07/03 02:01:55;;;;;;;14.90;9.73;;;18.10;74.00;;;;;;5038055;28;20029;-72
2021/07/03 02:04:22;;;;;;;19.27;11.50;;;18.00;72.90;;;;;;5038284;28;20037;-72
2021/07/03 02:06:48;;;;;;;15.90;11.73;;;18.00;74.50;;;;;;5037345;28;20025;-71
2021/07/03 02:09:15;;;;;;;16.05;11.10;;;18.10;72.90;;;;;;5037916;28;20038;-72
2021/07/03 02:11:41;;;;;;;17.40;10.45;;;18.10;72.60;;;;;;5036183;28;20032;-71
2021/07/03 02:14:07;;;;;;;16.23;10.30;;;18.10;74.10;;;;;;5038264;28;20104;-72
2021/07/03 02:16:34;;;;;;;15.65;10.93;;;18.10;72.40;;;;;;5037955;28;20052;-72
2021/07/03 02:19:01;;;;;;;17.67;10.95;;;18.10;72.10;;;;;;5029753;28;20050;-72
2021/07/03 02:21:27;;;;;;;19.80;10.63;;;18.10;72.10;;;;;;5037081;28;20032;-72
2021/07/03 02:23:53;;;;;;;16.30;11.07;;;18.10;72.40;;;;;;5037553;28;20392;-72
2021/07/03 02:26:21;;;;;;;15.95;10.52;;;18.10;72.80;;;;;;5037543;28;20018;-71
2021/07/03 02:28:47;;;;;;;17.33;11.30;;;18.10;74.30;;;;;;5037595;28;20021;-72
2021/07/03 02:31:13;;;;;;;17.08;11.68;;;18.10;73.30;;;;;;5037308;28;20070;-72
2021/07/03 02:33:39;;;;;;;15.38;9.93;;;18.10;72.50;;;;;;5035878;28;20037;-72
2021/07/03 02:36:05;;;;;;;16.95;11.52;;;18.10;72.30;;;;;;5037194;28;20108;-72
2021/07/03 02:38:30;;;;;;;15.20;10.27;;;18.10;72.30;;;;;;5037376;28;20108;-72
2021/07/03 02:40:56;;;;;;;15.73;10.50;;;18.10;72.20;;;;;;5036594;28;20014;-73
2021/07/03 02:43:22;;;;;;;17.23;11.38;;;18.10;72.00;;;;;;5037330;28;20077;-73
2021/07/03 02:45:48;;;;;;;15.68;10.85;;;18.10;71.60;;;;;;5031022;28;20025;-73
2021/07/03 02:48:14;;;;;;;18.70;10.88;;;18.10;71.80;;;;;;5034921;28;20030;-73
2021/07/03 02:50:39;;;;;;;14.20;10.27;;;18.10;71.60;;;;;;5036972;28;20022;-73
2021/07/03 02:53:05;;;;;;;17.10;10.90;;;18.10;71.70;;;;;;5036438;28;20036;-72
2021/07/03 02:55:31;;;;;;;16.23;11.15;;;18.10;71.30;;;;;;5036990;28;20017;-72
2021/07/03 02:57:57;;;;;;;19.25;12.00;;;18.10;71.80;;;;;;5037454;28;20081;-72
2021/07/03 03:00:23;;;;;;;13.52;9.55;;;18.10;71.30;;;;;;5037035;28;20152;-72
2021/07/03 03:02:49;;;;;;;16.90;10.65;;;18.10;71.20;;;;;;5037171;28;20033;-72
2021/07/03 03:05:15;;;;;;;16.45;10.30;;;18.10;71.10;;;;;;5037376;28;20503;-72
2021/07/03 03:07:42;;;;;;;18.80;11.23;;;18.10;71.10;;;;;;5037672;28;20071;-72
2021/07/03 03:10:11;;;;;;;14.70;10.27;;;18.10;71.50;;;;;;5036996;28;20021;-72
2021/07/03 03:12:37;;;;;;;19.08;10.73;;;18.10;71.50;;;;;;5028959;28;20017;-72
2021/07/03 03:15:04;;;;;;;17.42;11.40;;;18.10;71.50;;;;;;5035280;28;20093;-72
2021/07/03 03:17:30;;;;;;;20.88;11.85;;;18.10;71.50;;;;;;5036591;28;20041;-72
2021/07/03 03:19:56;;;;;;;18.15;10.85;;;18.10;71.70;;;;;;5029381;28;20028;-72
2021/07/03 03:22:22;;;;;;;14.63;10.63;;;18.10;71.90;;;;;;5036485;28;20021;-72
2021/07/03 03:24:47;;;;;;;17.10;10.88;;;18.10;71.90;;;;;;5036969;28;20029;-73
2021/07/03 03:27:14;;;;;;;17.15;11.07;;;18.10;71.80;;;;;;5037129;28;20026;-73
2021/07/03 03:29:39;;;;;;;17.48;11.43;;;18.10;72.10;;;;;;5037102;28;20488;-73
2021/07/03 03:32:06;;;;;;;15.63;10.40;;;18.10;71.90;;;;;;5036366;28;20060;-73
2021/07/03 03:34:32;;;;;;;18.40;12.55;;;18.10;71.90;;;;;;5035854;28;20026;-73
2021/07/03 03:36:57;;;;;;;18.23;13.02;;;18.10;72.90;;;;;;5036754;28;20105;-73
2021/07/03 03:39:23;;;;;;;17.25;11.23;;;18.10;72.70;;;;;;5036709;28;20025;-73
2021/07/03 03:41:49;;;;;;;20.25;11.07;;;18.10;73.10;;;;;;5036574;28;20038;-73
2021/07/03 03:44:15;;;;;;;15.82;10.88;;;18.10;72.40;;;;;;5031869;28;20070;-73
2021/07/03 03:46:41;;;;;;;18.13;10.82;;;18.10;72.10;;;;;;5033215;28;20052;-73
2021/07/03 03:49:07;;;;;;;16.85;10.80;;;18.10;71.90;;;;;;5036228;28;20025;-75
2021/07/03 03:51:33;;;;;;;16.23;9.90;;;18.10;72.10;;;;;;5036251;28;20041;-73
2021/07/03 03:53:59;;;;;;;17.70;10.52;;;18.10;71.80;;;;;;5040882;28;20472;-73
2021/07/03 03:56:25;;;;;;;14.68;10.02;;;18.10;71.80;;;;;;5040241;28;20531;-73
2021/07/03 03:58:50;;;;;;;15.80;11.57;;;18.10;71.70;;;;;;5040641;28;20021;-74
2021/07/03 04:01:16;;;;;;;18.35;10.75;;;18.10;71.80;;;;;;5039977;28;20075;-74
2021/07/03 04:03:42;;;;;;;14.82;10.73;;;18.10;71.90;;;;;;5040602;28;20021;-74
2021/07/03 04:06:08;;;;;;;16.77;10.43;;;18.10;72.00;;;;;;5035866;28;20025;-74
2021/07/03 04:08:34;;;;;;;14.60;10.52;;;18.10;71.80;;;;;;5031351;28;20026;-73
2021/07/03 04:11:00;;;;;;;16.10;11.02;;;18.10;71.90;;;;;;5038921;28;20034;-73
2021/07/03 04:13:26;;;;;;;17.00;11.00;;;18.10;71.70;;;;;;5040305;28;20382;-72
2021/07/03 04:15:52;;;;;;;13.82;9.93;;;18.10;72.40;;;;;;5039603;28;20021;-73
2021/07/03 04:18:18;;;;;;;18.17;11.80;;;18.10;72.20;;;;;;5039637;28;20041;-73
2021/07/03 04:20:44;;;;;;;18.35;12.27;;;18.20;72.80;;;;;;5038438;28;20053;-73
2021/07/03 04:23:09;;;;;;;15.45;10.48;;;18.10;72.40;;;;;;5039647;28;20439;-73
2021/07/03 04:25:35;;;;;;;15.43;10.20;;;18.20;72.20;;;;;;5039806;28;20021;-72
2021/07/03 04:28:01;;;;;;;15.57;10.02;;;18.20;72.50;;;;;;5039966;28;20036;-73
2021/07/03 04:30:27;;;;;;;16.70;9.80;;;18.20;72.30;;;;;;5039505;28;20025;-73
2021/07/03 04:32:53;;;;;;;16.13;10.00;;;18.10;72.30;;;;;;5039789;28;20029;-72
2021/07/03 04:35:19;;;;;;;16.52;10.10;;;18.20;72.20;;;;;;5038756;28;20025;-72
2021/07/03 04:37:45;;;;;;;17.38;11.25;;;18.10;72.30;;;;;;5038487;28;20040;-72
2021/07/03 04:40:11;;;;;;;15.57;11.15;;;18.20;72.60;;;;;;5039898;28;20021;-72
2021/07/03 04:42:37;;;;;;;17.95;12.20;;;18.20;73.30;;;;;;5028351;28;20036;-72
2021/07/03 04:45:05;;;;;;;16.42;11.93;;;18.20;74.30;;;;;;5036798;28;20021;-73
2021/07/03 04:47:30;;;;;;;18.83;11.35;;;18.20;73.60;;;;;;5032314;28;20026;-73
2021/07/03 04:49:56;;;;;;;17.52;11.13;;;18.20;73.60;;;;;;5035248;28;20032;-73
2021/07/03 04:52:22;;;;;;;17.40;10.93;;;18.20;74.00;;;;;;5038953;28;20033;-73
2021/07/03 04:54:48;;;;;;;18.55;12.13;;;18.20;74.00;;;;;;5039251;28;20026;-73
2021/07/03 04:57:14;;;;;;;22.80;12.77;;;18.20;74.20;;;;;;5039779;28;20029;-73
2021/07/03 04:59:44;;;;;;;18.02;12.93;;;18.20;74.70;;;;;;5037882;28;20025;-72
2021/07/03 05:02:14;;;;;;;20.20;12.15;;;18.20;74.50;;;;;;5038821;28;20082;-73
2021/07/03 05:04:42;;;;;;;17.10;11.05;;;18.20;74.60;;;;;;5038414;28;20038;-73
2021/07/03 05:07:08;;;;;;;17.65;11.00;;;18.20;75.00;;;;;;5035651;28;20061;-72
2021/07/03 05:09:34;;;;;;;16.83;11.02;;;18.20;74.50;;;;;;5039559;28;20052;-72
2021/07/03 05:12:00;;;;;;;17.35;10.88;;;18.20;74.30;;;;;;5031113;28;20488;-72
2021/07/03 05:14:26;;;;;;;16.33;11.02;;;18.30;74.60;;;;;;5038500;28;20025;-72
2021/07/03 05:16:52;;;;;;;18.98;11.63;;;18.30;75.40;;;;;;5038198;28;20104;-73
2021/07/03 05:19:18;;;;;;;16.08;11.38;;;18.30;76.80;;;;;;5032222;28;20042;-73
2021/07/03 05:21:44;;;;;;;18.60;12.07;;;18.30;76.40;;;;;;5037727;28;20425;-73
2021/07/03 05:24:10;;;;;;;17.55;10.35;;;18.30;76.80;;;;;;5039099;28;20412;-73
2021/07/03 05:26:37;;;;;;;16.55;10.02;;;18.30;76.60;;;;;;5038671;28;20044;-74
2021/07/03 05:29:05;;;;;;;16.33;10.75;;;18.30;76.40;;;;;;5039062;28;20096;-74
2021/07/03 05:31:31;;;;;;;15.07;10.93;;;18.40;77.50;;;;;;5038228;28;20037;-73
2021/07/03 05:33:57;;;;;;;15.02;10.23;;;18.30;76.60;;;;;;5038885;28;20026;-74
2021/07/03 05:36:23;;;;;;;15.27;9.65;;;18.40;77.50;;;;;;5038441;28;20108;-73
2021/07/03 05:38:49;;;;;;;15.38;9.98;;;18.40;77.50;;;;;;5038553;28;20049;-73
2021/07/03 05:41:17;;;;;;;14.98;9.85;;;18.50;77.90;;;;;;5037563;28;20448;-73
2021/07/03 05:43:43;;;;;;;12.75;9.27;;;18.50;77.50;;;;;;5027764;28;20100;-73
2021/07/03 05:46:10;;;;;;;14.27;9.18;;;18.50;77.90;;;;;;5037880;28;20481;-72
2021/07/03 05:48:38;;;;;;;15.38;9.45;;;18.50;77.50;;;;;;5037572;28;20392;-73
2021/07/03 05:51:04;;;;;;;14.23;8.80;;;18.50;78.00;;;;;;5037753;28;20029;-73
2021/07/03 05:53:30;;;;;;;15.00;9.70;;;18.60;77.50;;;;;;5038495;28;20065;-73
2021/07/03 05:55:56;;;;;;;14.15;8.90;;;18.60;77.50;;;;;;5038277;28;20022;-73
2021/07/03 05:58:22;;;;;;;12.85;8.40;;;18.60;78.20;;;;;;5036562;28;20032;-73
2021/07/03 06:00:47;;;;;;;12.98;8.50;;;18.70;78.20;;;;;;5037362;28;20029;-73
2021/07/03 06:03:13;;;;;;;12.07;8.48;;;18.80;78.40;;;;;;5037860;28;20031;-72
2021/07/03 06:05:39;;;;;;;11.75;8.25;;;18.90;78.30;;;;;;5026780;28;20829;-73
2021/07/03 06:08:05;;;;;;;10.52;7.13;;;18.90;78.70;;;;;;5038052;28;20116;-72
2021/07/03 06:10:31;;;;;;;9.02;7.05;;;19.00;78.30;;;;;;5025027;28;20044;-73
2021/07/03 06:12:57;;;;;;;9.63;6.82;;;19.10;78.40;;;;;;5037676;28;20022;-72
2021/07/03 06:15:23;;;;;;;10.68;6.60;;;19.10;77.90;;;;;;5037698;28;20524;-72
2021/07/03 06:17:49;;;;;;;11.07;6.75;;;19.10;77.80;;;;;;5037733;28;20048;-73
2021/07/03 06:20:15;;;;;;;10.15;7.00;;;19.10;77.60;;;;;;5033670;28;20411;-73
2021/07/03 06:22:41;;;;;;;12.50;6.50;;;19.10;77.90;;;;;;5037698;28;20025;-73
2021/07/03 06:25:09;;;;;;;8.93;6.18;;;19.10;77.30;;;;;;5037577;28;20393;-73
2021/07/03 06:27:37;;;;;;;7.65;5.72;;;19.10;76.90;;;;;;5037886;28;20025;-73
2021/07/03 06:30:07;;;;;;;9.68;5.75;;;19.20;76.60;;;;;;5037850;28;20400;-74
2021/07/03 06:32:33;;;;;;;8.45;5.32;;;19.10;76.30;;;;;;5034761;28;20025;-73
2021/07/03 06:34:59;;;;;;;7.55;5.63;;;19.10;76.60;;;;;;5029891;28;20041;-72
2021/07/03 06:37:25;;;;;;;9.30;6.45;;;19.20;76.90;;;;;;5046223;28;20077;-72
2021/07/03 06:39:51;;;;;;;8.93;5.53;;;19.20;76.80;;;;;;5036032;28;20929;-73
2021/07/03 06:42:17;;;;;;;10.15;5.47;;;19.30;77.80;;;;;;5037018;28;20111;-71
2021/07/03 06:44:45;;;;;;;8.38;5.22;;;19.30;77.30;;;;;;5036518;28;20038;-72
2021/07/03 06:47:12;;;;;;;7.40;4.80;;;19.40;77.60;;;;;;5027780;28;20029;-72
2021/07/03 06:49:37;;;;;;;6.47;4.25;;;19.40;77.80;;;;;;5033063;28;20025;-72
2021/07/03 06:52:04;;;;;;;8.52;4.43;;;19.50;77.60;;;;;;5037389;28;20488;-82
2021/07/03 06:54:29;;;;;;;6.57;4.70;;;19.50;77.60;;;;;;5036692;28;20022;-79
2021/07/03 06:56:58;;;;;;;6.53;4.15;;;19.50;77.20;;;;;;5036471;28;20546;-76
2021/07/03 06:59:26;;;;;;;5.63;4.05;;;19.60;77.20;;;;;;5037828;28;20080;-74
2021/07/03 07:01:53;;;;;;;6.78;4.13;;;19.50;77.20;;;;;;5036841;28;20086;-77
2021/07/03 07:04:21;;;;;;;6.57;4.07;;;19.50;77.10;;;;;;5036805;28;20053;-73
2021/07/03 07:06:48;;;;;;;6.82;4.00;;;19.60;77.40;;;;;;5036974;28;20029;-73
2021/07/03 07:09:14;;;;;;;6.38;4.20;;;19.60;77.20;;;;;;5036603;28;20111;-75
2021/07/03 07:11:40;;;;;;;6.75;4.20;;;19.70;77.20;;;;;;5032855;28;20045;-76
2021/07/03 07:14:06;;;;;;;6.05;3.85;;;19.60;77.00;;;;;;5034812;28;20029;-76
2021/07/03 07:16:34;;;;;;;7.20;3.85;;;19.70;77.20;;;;;;5034410;28;20044;-73
2021/07/03 07:19:00;;;;;;;4.28;2.60;;;19.70;77.00;;;;;;5028963;28;20060;-72
2021/07/03 07:21:26;;;;;;;4.40;2.55;;;19.70;77.80;;;;;;5036784;28;20014;-76
2021/07/03 07:23:52;;;;;;;4.60;3.10;;;19.70;77.90;;;;;;5036928;28;20098;-73
2021/07/03 07:26:18;;;;;;;4.82;2.90;;;19.80;77.80;;;;;;5033065;28;20029;-73
2021/07/03 07:28:44;;;;;;;3.35;1.92;;;19.80;78.30;;;;;;5036983;28;20030;-73
2021/07/03 07:31:10;;;;;;;4.57;1.80;;;19.90;78.00;;;;;;5036573;28;20079;-77
2021/07/03 07:33:36;;;;;;;3.72;2.20;;;20.10;78.30;;;;;;5036777;28;20381;-76
2021/07/03 07:36:02;;;;;;;5.60;2.85;;;20.30;78.80;;;;;;5036792;28;20025;-76
2021/07/03 07:38:28;;;;;;;3.47;1.73;;;20.50;78.40;;;;;;5036379;28;20400;-74
2021/07/03 07:40:54;;;;;;;4.68;2.10;;;20.60;77.60;;;;;;5036472;28;20026;-75
2021/07/03 07:43:20;;;;;;;3.08;1.48;;;20.70;77.10;;;;;;5036439;28;20057;-76
2021/07/03 07:45:46;;;;;;;2.47;1.20;;;20.70;77.00;;;;;;5029687;28;20022;-75
2021/07/03 07:48:12;;;;;;;37.90;27.23;;;20.70;77.00;;;;;;5034245;28;20044;-72
2021/07/03 07:50:38;;;;;;;24.00;21.40;;;20.70;77.00;;;;;;5036484;28;20496;-73
2021/07/03 07:53:04;;;;;;;7.88;5.32;;;20.80;77.20;;;;;;5036491;28;20045;-74
2021/07/03 07:55:30;;;;;;;3.55;1.60;;;20.90;77.20;;;;;;5036443;28;20057;-73
2021/07/03 07:57:56;;;;;;;4.22;1.33;;;21.10;77.20;;;;;;5036179;28;20028;-73
2021/07/03 08:00:22;;;;;;;2.25;1.00;;;21.30;76.30;;;;;;5035800;28;20026;-72
2021/07/03 08:02:49;;;;;;;3.03;0.90;;;21.30;76.40;;;;;;5036557;28;20053;-72
2021/07/03 08:05:16;;;;;;;2.28;0.80;;;21.40;76.20;;;;;;5036521;28;20025;-69
2021/07/03 08:07:42;;;;;;;2.10;0.95;;;21.60;75.90;;;;;;5036580;28;20033;-72
2021/07/03 08:10:08;;;;;;;6.05;3.20;;;21.70;75.80;;;;;;5036504;28;20029;-71
2021/07/03 08:12:34;;;;;;;6.32;3.90;;;21.70;74.70;;;;;;5031215;28;20050;-70
2021/07/03 08:15:00;;;;;;;4.57;2.40;;;21.60;74.20;;;;;;5028216;28;20033;-71
2021/07/03 08:17:26;;;;;;;3.17;1.30;;;21.50;74.30;;;;;;5035194;28;20045;-68
2021/07/03 08:19:52;;;;;;;26.42;16.75;;;21.40;74.70;;;;;;5030994;28;20105;-70
2021/07/03 08:22:18;;;;;;;9.77;6.97;;;21.40;74.90;;;;;;5036215;28;20036;-69
2021/07/03 08:24:43;;;;;;;7.50;2.60;;;21.40;75.00;;;;;;5036384;28;20400;-70
2021/07/03 08:27:09;;;;;;;4.78;2.03;;;21.40;75.10;;;;;;5036540;28;20085;-72
2021/07/03 08:29:35;;;;;;;3.55;1.63;;;21.40;75.20;;;;;;5035446;28;20026;-70
2021/07/03 08:32:01;;;;;;;4.55;1.30;;;21.40;75.60;;;;;;5034713;28;20026;-70
2021/07/03 08:34:27;;;;;;;5.65;1.98;;;21.50;75.00;;;;;;5035517;28;20100;-69
2021/07/03 08:36:52;;;;;;;3.65;1.27;;;21.50;74.40;;;;;;5034819;28;20022;-69
2021/07/03 08:39:18;;;;;;;2.97;1.38;;;21.50;74.00;;;;;;5038167;28;20443;-69
2021/07/03 08:41:44;;;;;;;2.90;1.23;;;21.50;73.40;;;;;;5035618;28;20100;-69
2021/07/03 08:44:12;;;;;;;6.93;1.58;;;21.50;72.90;;;;;;5032552;28;20030;-69
2021/07/03 08:46:41;;;;;;;5.72;1.67;;;21.50;72.90;;;;;;5037095;28;20093;-69
2021/07/03 08:49:08;;;;;;;4.65;1.70;;;21.40;72.50;;;;;;5036810;28;20060;-69
2021/07/03 08:51:34;;;;;;;5.18;1.73;;;21.30;72.50;;;;;;5036749;28;20444;-69
2021/07/03 08:54:01;;;;;;;4.50;1.52;;;21.20;73.00;;;;;;5040251;28;20044;-68
2021/07/03 08:56:27;;;;;;;5.22;1.83;;;21.20;73.40;;;;;;5035605;28;20111;-69
2021/07/03 08:58:53;;;;;;;5.35;1.42;;;21.30;73.00;;;;;;5039175;28;20022;-69
2021/07/03 09:01:19;;;;;;;5.72;1.92;;;21.40;73.00;;;;;;5048759;28;20100;-71
2021/07/03 09:03:53;;;;;;;4.80;1.75;;;21.40;72.50;;;;;;5040033;28;20032;-69
2021/07/03 09:06:30;;;;;;;4.72;1.65;;;21.50;72.70;;;;;;5039534;28;20025;-70
2021/07/03 09:08:56;;;;;;;4.80;1.45;;;21.50;72.00;;;;;;5038801;28;20100;-69
2021/07/03 09:11:22;;;;;;;5.53;1.70;;;21.50;71.70;;;;;;5038226;28;20488;-72
2021/07/03 09:14:00;;;;;;;9.50;4.93;;;21.40;71.80;;;;;;5037118;28;20136;-70
2021/07/03 09:16:35;;;;;;;10.18;4.88;;;21.40;72.30;;;;;;5026697;28;20018;-68
2021/07/03 09:19:03;;;;;;;21.67;14.48;;;21.40;72.20;;;;;;5038537;28;20041;-71
2021/07/03 09:21:30;;;;;;;10.18;3.58;;;21.60;72.20;;;;;;5037205;28;20026;-69
2021/07/03 09:23:58;;;;;;;7.05;1.75;;;21.70;71.70;;;;;;5035895;28;20033;-71
2021/07/03 09:26:24;;;;;;;3.15;1.23;;;21.80;70.40;;;;;;5033554;28;20029;-70
2021/07/03 09:28:50;;;;;;;4.53;1.73;;;22.00;70.00;;;;;;5037667;28;20432;-74
2021/07/03 09:31:18;;;;;;;5.70;1.70;;;21.90;70.20;;;;;;5037203;28;20025;-71
2021/07/03 09:33:52;;;;;;;5.90;1.80;;;22.00;69.70;;;;;;5037607;28;20460;-70
2021/07/03 09:36:26;;;;;;;10.60;2.47;;;22.10;69.80;;;;;;5038110;28;20052;-69
2021/07/03 09:38:54;;;;;;;9.40;2.72;;;22.10;69.80;;;;;;5036668;28;20033;-69
2021/07/03 09:41:31;;;;;;;7.07;1.95;;;22.10;69.20;;;;;;5037089;28;20028;-71
2021/07/03 09:43:59;;;;;;;5.97;2.60;;;22.30;70.20;;;;;;5036129;28;20033;-72
2021/07/03 09:46:46;;;;;;;8.10;2.08;;;22.60;69.40;;;;;;5036535;28;20039;-71
2021/07/03 09:49:14;;;;;;;21.67;14.18;;;22.80;69.10;;;;;;5036624;28;20033;-73
2021/07/03 09:51:46;;;;;;;21.88;13.98;;;22.90;69.50;;;;;;5038227;28;20041;-75
2021/07/03 09:54:16;;;;;;;9.63;5.18;;;23.00;69.50;;;;;;5037843;28;20069;-71
2021/07/03 09:56:44;;;;;;;6.68;2.65;;;23.10;68.40;;;;;;5037542;28;20030;-72
2021/07/03 09:59:10;;;;;;;8.05;1.90;;;23.20;68.70;;;;;;5037328;28;20029;-71
2021/07/03 10:01:40;;;;;;;9.27;1.95;;;23.20;68.10;;;;;;5037572;28;20025;-71
2021/07/03 10:04:07;;;;;;;7.60;1.90;;;23.10;66.80;;;;;;5029713;28;20416;-71
2021/07/03 10:06:54;;;;;;;5.70;1.70;;;23.00;67.90;;;;;;5037377;28;20030;-72
2021/07/03 10:09:29;;;;;;;7.30;1.42;;;23.40;69.70;;;;;;5026418;28;20495;-72
2021/07/03 10:12:04;;;;;;;7.72;2.00;;;23.70;69.50;;;;;;5030510;28;20504;-72
2021/07/03 10:14:44;;;;;;;6.30;1.98;;;23.90;66.60;;;;;;5029016;28;20104;-71
2021/07/03 10:17:11;;;;;;;6.78;1.48;;;23.90;65.90;;;;;;5032090;28;20025;-71
2021/07/03 10:19:46;;;;;;;6.05;1.77;;;23.70;65.40;;;;;;5032755;28;20026;-71
2021/07/03 10:22:23;;;;;;;21.95;14.73;;;23.50;65.80;;;;;;5036304;28;20041;-72
2021/07/03 10:24:54;;;;;;;4.97;1.73;;;23.40;66.00;;;;;;5029994;28;20045;-71
2021/07/03 10:27:29;;;;;;;4.43;1.60;;;23.20;66.70;;;;;;5036955;28;20104;-69
2021/07/03 10:29:58;;;;;;;3.92;1.35;;;23.00;67.10;;;;;;5036112;28;20079;-70
2021/07/03 10:32:30;;;;;;;5.10;1.50;;;22.90;67.60;;;;;;5036508;28;20400;-73
2021/07/03 10:35:11;;;;;;;7.40;3.13;;;22.70;67.90;;;;;;5037118;28;20113;-71
2021/07/03 10:37:38;;;;;;;5.82;3.20;;;22.60;68.90;;;;;;5032952;28;20433;-71
2021/07/03 10:40:25;;;;;;;3.58;1.30;;;22.60;69.30;;;;;;5035143;28;20092;-74
2021/07/03 10:42:53;;;;;;;5.40;2.20;;;22.80;69.20;;;;;;5036330;28;20048;-76
2021/07/03 10:45:24;;;;;;;1.67;0.82;;;22.80;68.00;;;;;;5030826;28;20373;-76
2021/07/03 10:47:52;;;;;;;3.65;0.95;;;22.80;66.70;;;;;;5032274;28;20021;-74
2021/07/03 10:50:23;;;;;;;2.03;0.90;;;22.80;66.80;;;;;;5034564;28;20021;-72
2021/07/03 10:52:51;;;;;;;4.15;1.30;;;22.70;67.30;;;;;;5036501;28;20029;-62
2021/07/03 10:55:30;;;;;;;4.75;1.30;;;22.70;67.80;;;;;;5036053;28;20084;-63
2021/07/03 10:57:58;;;;;;;2.70;1.10;;;22.60;68.10;;;;;;5036574;28;20031;-65
2021/07/03 11:00:25;;;;;;;3.40;1.08;;;22.60;68.80;;;;;;5036045;28;20021;-67
2021/07/03 11:02:51;;;;;;;2.97;1.20;;;22.50;66.30;;;;;;5036734;28;20029;-67
2021/07/03 11:05:17;;;;;;;3.88;1.30;;;22.50;66.30;;;;;;5035785;28;20116;-66
2021/07/03 11:07:47;;;;;;;4.88;1.75;;;22.50;67.20;;;;;;5036034;28;20527;-67
2021/07/03 11:10:25;;;;;;;3.60;1.80;;;22.50;66.50;;;;;;5035429;28;20030;-67
2021/07/03 11:12:53;;;;;;;4.10;1.45;;;22.60;65.70;;;;;;5031776;28;20029;-73
2021/07/03 11:15:29;;;;;;;5.07;1.20;;;22.90;67.10;;;;;;5036737;28;20017;-72
2021/07/03 11:18:00;;;;;;;3.92;1.75;;;23.80;70.70;;;;;;5032641;28;20046;-73
2021/07/03 11:20:32;;;;;;;4.55;1.70;;;25.00;69.00;;;;;;5034624;28;20032;-75
2021/07/03 11:22:59;;;;;;;3.90;1.48;;;26.10;68.60;;;;;;5037045;28;20492;-73
2021/07/03 11:25:28;;;;;;;7.57;2.97;;;26.90;65.50;;;;;;5036786;28;20030;-76
2021/07/03 11:28:02;;;;;;;4.35;2.35;;;27.00;61.40;;;;;;5036514;28;20037;-63
2021/07/03 11:30:28;;;;;;;15.00;10.25;;;27.10;61.40;;;;;;5035515;28;20097;-62
2021/07/03 11:32:57;;;;;;;7.03;3.40;;;27.00;60.30;;;;;;5035401;28;20018;-63
2021/07/03 11:35:23;;;;;;;8.35;5.75;;;26.70;60.10;;;;;;5036371;28;20104;-64
2021/07/03 11:37:50;;;;;;;4.85;1.48;;;26.50;61.40;;;;;;5035314;28;20030;-64
2021/07/03 11:40:22;;;;;;;8.68;5.93;;;26.30;61.20;;;;;;5033636;28;20033;-63
2021/07/03 11:42:50;;;;;;;8.75;6.40;;;26.00;60.60;;;;;;5036169;28;20029;-63
2021/07/03 11:45:18;;;;;;;4.85;1.40;;;25.80;61.30;;;;;;5034052;28;20041;-63
2021/07/03 11:47:50;;;;;;;4.55;1.35;;;25.60;61.60;;;;;;5033896;28;20041;-63
2021/07/03 11:50:22;;;;;;;4.00;1.20;;;25.40;61.30;;;;;;5035355;28;20025;-64
2021/07/03 11:52:50;;;;;;;9.55;6.18;;;25.30;62.30;;;;;;5025818;28;20099;-64
2021/07/03 11:55:19;;;;;;;8.60;3.63;;;25.30;61.50;;;;;;5037027;28;20029;-63
2021/07/03 11:57:47;;;;;;;5.07;1.40;;;25.50;63.00;;;;;;5037127;28;20060;-66
2021/07/03 12:00:34;;;;;;;3.88;1.27;;;25.80;64.50;;;;;;5036850;28;20018;-66
2021/07/03 12:03:01;;;;;;;4.22;1.10;;;26.10;62.00;;;;;;5036034;28;20111;-65
2021/07/03 12:05:39;;;;;;;4.85;1.40;;;26.10;60.70;;;;;;5036772;28;20029;-65
2021/07/03 12:08:12;;;;;;;4.47;1.20;;;25.90;59.40;;;;;;5036671;28;20033;-68
2021/07/03 12:10:40;;;;;;;3.72;1.13;;;25.70;59.30;;;;;;5036317;28;20033;-67
2021/07/03 12:13:17;;;;;;;8.90;4.38;;;25.40;59.60;;;;;;5031512;28;20079;-66
2021/07/03 12:15:44;;;;;;;23.50;15.65;;;25.10;60.50;;;;;;5038436;28;20032;-65
2021/07/03 12:18:09;;;;;;;6.07;2.80;;;24.90;61.60;;;;;;5039435;28;20081;-65
2021/07/03 12:20:35;;;;;;;4.53;1.58;;;24.70;61.90;;;;;;5040304;28;20044;-77
2021/07/03 12:23:04;;;;;;;4.22;1.33;;;24.50;62.10;;;;;;5040109;28;20085;-76
2021/07/03 12:25:34;;;;;;;3.65;1.40;;;24.30;63.00;;;;;;5040543;28;20039;-76
2021/07/03 12:28:05;;;;;;;4.03;1.52;;;24.10;63.10;;;;;;5040043;28;20104;-77
2021/07/03 12:30:32;;;;;;;4.03;1.38;;;24.00;64.40;;;;;;5040153;28;20502;-85
2021/07/03 12:33:06;;;;;;;2.58;0.90;;;24.10;66.20;;;;;;5027091;28;20080;-86
2021/07/03 12:35:37;;;;;;;4.03;1.08;;;24.30;65.70;;;;;;5040499;28;20024;-78
2021/07/03 12:38:03;;;;;;;3.83;1.20;;;24.40;63.50;;;;;;5039238;28;20033;-79